< < Back
Terminal Aerodrome Forecast


Current Version              Previous Versions:   1  2  3  4  5  6  7  8  9  

Terminal Aerodrome Forecast

665
FTUS42 KTAE 181300 AAA
TAFVLD
TAF AMD
KVLD 181308Z 1813/1912 05008G18KT 3SM +RA BKN005 OVC010
     FM190200 02008G18KT 3SM -DZ BR BKN007=



Latest METAR

986
SAUS70 KWBC 182100 RRI
MTRVLD
METAR KVLD 182053Z 06012KT 10SM BKN009 BKN050 OVC095 17/14 A2996 RMK AO2
RAE46 SLP152 P0001 60046 T01670139 58027


USA.gov is the U.S. government's official web portal to all federal, state and local government web resources and services.